createdAt,value
2023-02-11T00:03:57.441Z,42.20
2023-02-11T00:10:00.930Z,41.80
2023-02-11T00:16:04.544Z,43.40
2023-02-11T00:22:10.835Z,45.90
2023-02-11T00:28:14.244Z,36.70
2023-02-11T00:34:17.787Z,38.60
2023-02-11T00:40:21.208Z,42.40
2023-02-11T00:46:24.985Z,43.60
2023-02-11T00:52:28.444Z,43.50
2023-02-11T00:58:32.105Z,39.80
2023-02-11T01:04:35.622Z,39.70
2023-02-11T01:10:35.119Z,43.40
2023-02-11T01:16:38.553Z,40.50
2023-02-11T01:22:40.646Z,38.20
2023-02-11T01:28:38.053Z,41.00
2023-02-11T01:34:41.448Z,40.40
2023-02-11T01:40:44.996Z,45.70
2023-02-11T01:46:39.827Z,37.70
2023-02-11T01:52:43.284Z,39.60
2023-02-11T01:58:39.808Z,39.20
2023-02-11T02:04:43.209Z,36.80
2023-02-11T02:10:46.744Z,43.20
2023-02-11T02:16:52.816Z,45.50
2023-02-11T02:23:01.922Z,33.70
2023-02-11T02:29:12.846Z,43.10
2023-02-11T02:35:31.310Z,44.70
2023-02-11T02:41:37.678Z,36.60
2023-02-11T02:47:39.579Z,40.80
2023-02-11T02:53:42.950Z,42.70
2023-02-11T02:59:52.030Z,45.60
2023-02-11T03:05:58.535Z,38.40
2023-02-11T03:12:02.001Z,43.40
2023-02-11T03:18:05.411Z,46.90
2023-02-11T03:24:17.682Z,39.70
2023-02-11T03:30:36.615Z,41.80
2023-02-11T03:36:43.056Z,44.10
2023-02-11T03:42:46.541Z,44.50
2023-02-11T03:48:50.081Z,42.90
2023-02-11T03:54:53.590Z,42.40
2023-02-11T04:00:56.288Z,37.50
2023-02-11T04:06:58.527Z,42.90
2023-02-11T04:13:01.893Z,52.40
2023-02-11T04:19:05.365Z,46.20
2023-02-11T04:25:08.755Z,42.80
2023-02-11T04:31:12.347Z,45.60
2023-02-11T04:37:15.722Z,48.80
2023-02-11T04:43:19.388Z,48.10
2023-02-11T04:49:22.774Z,44.60
2023-02-11T04:55:26.715Z,46.00
2023-02-11T05:01:30.103Z,50.10
2023-02-11T05:07:23.379Z,43.70
2023-02-11T05:13:25.386Z,46.80
2023-02-11T05:19:29.275Z,47.50
2023-02-11T05:25:21.538Z,47.60
2023-02-11T05:31:25.092Z,42.50
2023-02-11T05:37:21.135Z,48.90
2023-02-11T05:43:24.677Z,51.70
2023-02-11T05:49:28.089Z,54.40
2023-02-11T05:55:30.211Z,51.30
2023-02-11T06:01:33.625Z,51.70
2023-02-11T06:07:37.026Z,54.70
2023-02-11T06:13:39.263Z,53.10
2023-02-11T06:19:37.997Z,58.00
2023-02-11T06:25:41.584Z,56.60
2023-02-11T06:31:45.216Z,59.40
2023-02-11T06:37:48.827Z,57.10
2023-02-11T06:43:52.295Z,52.70
2023-02-11T06:49:55.806Z,57.10
2023-02-11T06:55:59.248Z,56.60
2023-02-11T07:01:55.975Z,55.90
2023-02-11T07:07:59.575Z,61.90
2023-02-11T07:14:03.181Z,57.60
2023-02-11T07:20:06.811Z,63.50
2023-02-11T07:26:00.238Z,60.40
2023-02-11T07:32:06.856Z,68.90
2023-02-11T07:38:10.736Z,55.30
2023-02-11T07:44:12.796Z,61.50
2023-02-11T07:50:16.191Z,60.50
2023-02-11T07:56:19.620Z,61.40
2023-02-11T08:02:23.210Z,59.40
2023-02-11T08:08:26.674Z,60.90
2023-02-11T08:14:28.559Z,62.50
2023-02-11T08:20:31.957Z,62.60
2023-02-11T08:26:35.662Z,61.10
2023-02-11T08:32:39.174Z,54.90
2023-02-11T08:38:42.580Z,58.80
2023-02-11T08:44:46.182Z,55.60
2023-02-11T08:50:49.647Z,58.90
2023-02-11T08:56:45.850Z,62.20
2023-02-11T09:02:49.241Z,62.90
2023-02-11T09:08:52.867Z,49.60
2023-02-11T09:14:56.421Z,49.60
2023-02-11T09:20:59.855Z,58.60
2023-02-11T09:27:06.019Z,58.30
2023-02-11T09:33:09.706Z,53.60
2023-02-11T09:39:13.121Z,56.00
2023-02-11T09:45:19.454Z,43.30
2023-02-11T09:51:28.930Z,52.90
2023-02-11T09:57:32.516Z,47.70
2023-02-11T10:04:00.659Z,48.70
2023-02-11T10:10:19.701Z,45.70
2023-02-11T10:16:26.440Z,49.50
2023-02-11T10:22:47.802Z,53.20
2023-02-11T10:28:54.173Z,47.10
2023-02-11T10:35:03.492Z,43.70
2023-02-11T10:41:07.004Z,46.40
2023-02-11T10:47:13.417Z,40.00
2023-02-11T10:53:25.928Z,41.60
2023-02-11T10:59:26.057Z,43.00
2023-02-11T11:05:38.378Z,41.30
2023-02-11T11:11:44.919Z,41.50
2023-02-11T11:17:48.976Z,39.50
2023-02-11T11:23:52.379Z,35.80
2023-02-11T11:29:55.937Z,42.10
2023-02-11T11:36:02.409Z,36.80
2023-02-11T11:42:21.434Z,32.70
2023-02-11T11:48:40.052Z,38.70
2023-02-11T11:54:49.470Z,31.50
2023-02-11T12:00:55.683Z,30.80
2023-02-11T12:06:59.221Z,32.90
2023-02-11T12:13:24.165Z,31.30
2023-02-11T12:20:01.148Z,32.10
2023-02-11T12:26:20.004Z,24.80
2023-02-11T12:32:32.648Z,26.20
2023-02-11T12:44:29.230Z,21.20
2023-02-11T12:50:32.876Z,25.20
2023-02-11T12:56:36.449Z,26.00
2023-02-11T13:09:11.870Z,20.00
2023-02-11T13:15:07.438Z,22.20
2023-02-11T13:21:13.577Z,21.20
2023-02-11T13:27:26.134Z,23.20
2023-02-11T13:33:34.793Z,22.70
2023-02-11T13:39:41.199Z,21.90
2023-02-11T13:45:45.303Z,20.60
2023-02-11T13:51:57.444Z,21.30
2023-02-11T13:58:07.796Z,19.10
2023-02-11T14:04:09.727Z,20.30
2023-02-11T14:10:14.667Z,20.80
2023-02-11T14:16:31.610Z,17.20
2023-02-11T14:22:43.994Z,14.60
2023-02-11T14:28:48.651Z,16.70
2023-02-11T14:34:51.646Z,17.40
2023-02-11T14:40:53.712Z,18.50
2023-02-11T14:46:58.154Z,17.00
2023-02-11T14:52:52.956Z,14.50
2023-02-11T14:58:34.363Z,13.00
2023-02-11T15:04:01.439Z,14.40
2023-02-11T15:09:39.116Z,14.50
2023-02-11T15:15:32.451Z,13.30
2023-02-11T15:20:51.227Z,12.20
2023-02-11T15:26:46.392Z,14.20
2023-02-11T15:32:50.212Z,10.90
2023-02-11T15:38:43.139Z,12.90
2023-02-11T15:44:43.835Z,12.40
2023-02-11T15:50:34.080Z,11.00
2023-02-11T15:56:44.735Z,11.20
2023-02-11T16:02:25.532Z,11.40
2023-02-11T16:08:35.618Z,10.40
2023-02-11T16:14:39.493Z,9.90
2023-02-11T16:20:44.298Z,11.00
2023-02-11T16:26:43.892Z,8.90
2023-02-11T16:32:40.753Z,9.30
2023-02-11T16:38:35.770Z,10.80
2023-02-11T16:44:17.770Z,8.80
2023-02-11T16:50:21.405Z,9.00
2023-02-11T16:56:07.347Z,8.90
2023-02-11T17:02:11.826Z,7.70
2023-02-11T17:07:33.615Z,7.80
2023-02-11T17:13:37.164Z,7.20
2023-02-11T17:19:23.640Z,8.00
2023-02-11T17:25:16.895Z,8.80
2023-02-11T17:31:21.524Z,7.60
2023-02-11T17:37:29.688Z,8.60
2023-02-11T17:43:33.157Z,7.80
2023-02-11T17:49:23.739Z,6.90
2023-02-11T17:55:27.910Z,8.20
2023-02-11T18:01:33.457Z,7.50
2023-02-11T18:07:37.274Z,9.30
2023-02-11T18:13:40.676Z,7.60
2023-02-11T18:19:30.491Z,6.30
2023-02-11T18:25:17.382Z,7.30
2023-02-11T18:31:04.300Z,7.50
2023-02-11T18:36:37.247Z,6.60
2023-02-11T18:42:09.845Z,9.20
2023-02-11T18:48:06.219Z,7.70
2023-02-11T18:54:09.401Z,6.10
2023-02-11T19:00:04.005Z,8.20
2023-02-11T19:06:06.695Z,7.10
2023-02-11T19:11:50.045Z,7.00
2023-02-11T19:17:26.336Z,6.50
2023-02-11T19:23:31.605Z,8.80
2023-02-11T19:28:55.859Z,5.90
2023-02-11T19:34:42.938Z,6.70
2023-02-11T19:40:24.136Z,10.30
2023-02-11T19:46:17.428Z,6.80
2023-02-11T19:51:43.633Z,9.70
2023-02-11T19:57:02.679Z,9.60
2023-02-11T20:03:07.312Z,8.30
2023-02-11T20:08:20.094Z,12.00
2023-02-11T20:14:05.980Z,8.60
2023-02-11T20:19:24.760Z,11.30
2023-02-11T20:25:11.878Z,9.20
2023-02-11T20:30:42.550Z,8.90
2023-02-11T20:35:48.517Z,9.40
2023-02-11T20:41:15.718Z,8.20
2023-02-11T20:46:45.791Z,9.10
2023-02-11T20:52:32.192Z,9.70
2023-02-11T20:58:21.100Z,7.60
2023-02-11T21:03:35.296Z,8.60
2023-02-11T21:08:51.285Z,10.40
2023-02-11T21:18:56.898Z,10.60
2023-02-11T21:24:16.730Z,10.50
2023-02-11T21:29:36.696Z,9.60
2023-02-11T21:35:15.350Z,11.00
2023-02-11T21:40:27.247Z,10.30
2023-02-11T21:46:31.943Z,9.50
2023-02-11T21:52:36.311Z,9.10
2023-02-11T21:58:23.918Z,8.70
2023-02-11T22:04:27.340Z,12.80
2023-02-11T22:10:21.630Z,11.20
2023-02-11T22:16:25.410Z,11.70
2023-02-11T22:22:27.704Z,8.10
2023-02-11T22:28:31.204Z,12.90
2023-02-11T22:34:25.557Z,12.60
2023-02-11T22:40:29.214Z,9.80
2023-02-11T22:46:32.630Z,9.90
2023-02-11T22:52:36.148Z,13.70
2023-02-11T22:58:39.558Z,9.00
2023-02-11T23:04:43.063Z,9.80
2023-02-11T23:10:46.676Z,10.10
2023-02-11T23:16:41.800Z,12.20
2023-02-11T23:22:45.312Z,14.50
2023-02-11T23:28:48.751Z,10.80
2023-02-11T23:34:43.565Z,12.70
2023-02-11T23:40:41.836Z,12.60
2023-02-11T23:46:45.261Z,9.00
2023-02-11T23:52:48.711Z,11.40
2023-02-11T23:58:51.266Z,18.30
